Benagalbon, Spain

11:58 AM CET on February 21, 2017 (GMT +0100)
Torre de Benagalbon - Malaga - España | | Change Station

Elev 62 ft 36.72 °N, 4.27 °W | Updated 9 seconds ago

Clear
Clear
65.1 °F
Feels Like 65.1 °F
N
6.0
Wind Variable Wind from WNW
Gusts 6.7 mph

Today
High -- | Low -- °F
--% Chance of Precip.
Yesterday
High -- | Low -- °F
Precip. -- in
Pressure 30.09 in
Visibility 6.2 miles
Clouds Few 2000 ft
Dew Point 52 °F
Humidity 60%
Rainfall 0.00 in
Snow Depth Not available.
7:58 AM 7:03 PM
Waning Crescent, 26% visible
METAR LEMG 211030Z 16007KT 100V200 9999 FEW020 16/11 Q1019 NOSIG
Pressure 30.09 in
Visibility 6.2 miles
Clouds Few 2000 ft
Dew Point 52 °F
Humidity 60%
Rainfall 0.00 in
Snow Depth Not available.
7:58 AM 7:03 PM
Waning Crescent, 26% visible
METAR LEMG 211030Z 16007KT 100V200 9999 FEW020 16/11 Q1019 NOSIG

Get Your Daily Forecast Email!

Thanks for signing up!

Be on the lookout for a verification email in your inbox.

You'll start receiving the daily forecast at 8 AM.

×

10-Day Weather Forecast

×

Almanac

Astronomy

Feb. 21, 2017 Rise Set
Actual Time
Civil Twilight
Nautical Twilight
Astronomical Twilight
Moon
Length of Visible Light
Length of Day
Tomorrow will be .
, % of the Moon is Illuminated

Today's Extremes

Country Highs Country Lows

Community

WunderPhotos

Upload Photos

1,962,540 photos uploaded!

WunderBlog® & News

Nearby

Air Quality

  Air Quality AQ Index Pollutant
Not available.

Snow Depth

Station Depth Elevation

Earthquake Activity

City Distance Mag. Time & Date
Minimum magnitude displayed is 2.5.

Coastal Water Temperatures

Place Temperature

Stations

Nearby Weather Stations

Station Location Temp. Windchill Dew Point Humidity Wind Precip. Elev Updated Type